Time;durP1;ratioP1;P1;durP2;ratioP2;P2;SDS_P1;SDS_P2;PMS_P1;PMS_P2;Temp;Humidity;BMP_temperature;BMP_pressure;BME280_temperature;BME280_humidity;BME280_pressure;Samples;Min_cycle;Max_cycle;Signal;HPM_P1;HPM_P2
2021/10/12 00:00:00;;;;;;;3.08;1.00;;;17.10;66.50;;;;;;4954938;28;95948;-61
2021/10/12 00:02:40;;;;;;;1.42;0.93;;;17.10;66.60;;;;;;4964411;28;97861;-60
2021/10/12 00:05:11;;;;;;;;;;;17.20;66.50;;;;;;4961421;28;95623;-60
2021/10/12 00:07:43;;;;;;;1.00;1.00;;;17.20;66.40;;;;;;4961113;28;95369;-53
2021/10/12 00:10:15;;;;;;;1.38;0.95;;;17.20;66.50;;;;;;4965496;28;95868;-59
2021/10/12 00:12:45;;;;;;;1.00;0.90;;;17.20;66.50;;;;;;4959601;28;96107;-62
2021/10/12 00:15:16;;;;;;;1.00;0.90;;;17.20;66.50;;;;;;4951892;28;95990;-53
2021/10/12 00:17:46;;;;;;;1.33;0.93;;;17.30;66.50;;;;;;4965566;28;96236;-59
2021/10/12 00:20:16;;;;;;;1.05;0.98;;;17.30;66.40;;;;;;4967639;28;95796;-60
2021/10/12 00:22:46;;;;;;;2.47;1.40;;;17.30;66.40;;;;;;4966430;28;95873;-60
2021/10/12 00:25:18;;;;;;;3.65;1.42;;;17.40;66.40;;;;;;4966786;28;95744;-61
2021/10/12 00:27:51;;;;;;;1.63;1.00;;;17.40;66.50;;;;;;4963454;28;95867;-61
2021/10/12 00:30:22;;;;;;;0.98;0.63;;;17.40;66.40;;;;;;4963179;28;95859;-60
2021/10/12 00:32:53;;;;;;;1.33;1.17;;;17.40;66.50;;;;;;4968455;28;95834;-60
2021/10/12 00:35:25;;;;;;;1.30;1.00;;;17.50;66.30;;;;;;4963532;28;95847;-61
2021/10/12 00:37:56;;;;;;;1.20;0.80;;;17.60;66.20;;;;;;4959225;28;97114;-62
2021/10/12 00:40:28;;;;;;;1.73;1.08;;;17.60;66.10;;;;;;4952827;28;95938;-61
2021/10/12 00:42:59;;;;;;;1.90;1.38;;;17.60;65.70;;;;;;4961474;28;95894;-59
2021/10/12 00:45:30;;;;;;;4.43;1.20;;;17.70;65.90;;;;;;4963461;28;95760;-58
2021/10/12 00:48:07;;;;;;;1.15;1.05;;;17.80;66.30;;;;;;4967021;28;95975;-60
2021/10/12 00:50:39;;;;;;;2.97;0.80;;;18.00;66.50;;;;;;4969993;28;96975;-60
2021/10/12 00:53:13;;;;;;;1.15;1.05;;;18.10;63.70;;;;;;4969975;28;95835;-54
2021/10/12 00:55:43;;;;;;;2.17;1.10;;;18.10;67.10;;;;;;4968850;28;95917;-58
2021/10/12 00:58:15;;;;;;;2.25;1.13;;;18.20;67.00;;;;;;4969748;28;95525;-61
2021/10/12 01:00:48;;;;;;;3.08;1.40;;;18.20;66.90;;;;;;4961529;28;95821;-62
2021/10/12 01:03:21;;;;;;;1.05;0.90;;;18.20;65.90;;;;;;4967696;28;95865;-59
2021/10/12 01:05:53;;;;;;;1.67;1.08;;;18.40;67.10;;;;;;4967355;28;95718;-61
2021/10/12 01:08:25;;;;;;;0.70;0.60;;;18.50;67.00;;;;;;4969075;28;95489;-62
2021/10/12 01:10:56;;;;;;;1.27;0.70;;;18.50;66.90;;;;;;4969627;28;95778;-52
2021/10/12 01:13:27;;;;;;;0.98;0.90;;;18.60;67.00;;;;;;4955660;28;98261;-60
2021/10/12 01:15:59;;;;;;;0.88;0.88;;;18.70;66.80;;;;;;4954601;28;96027;-59
2021/10/12 01:18:31;;;;;;;0.77;0.77;;;18.80;66.60;;;;;;4967964;28;95827;-58
2021/10/12 01:21:01;;;;;;;0.85;0.70;;;18.80;66.60;;;;;;4968983;28;95435;-59
2021/10/12 01:23:32;;;;;;;0.80;0.80;;;18.90;66.50;;;;;;4967828;28;96106;-58
2021/10/12 01:26:03;;;;;;;0.65;0.60;;;19.00;66.50;;;;;;4968572;28;95295;-60
2021/10/12 01:28:33;;;;;;;1.02;0.70;;;19.10;66.20;;;;;;4969098;28;95786;-60
2021/10/12 01:31:04;;;;;;;0.70;0.70;;;19.20;66.10;;;;;;4962187;28;95428;-56
2021/10/12 01:34:20;;;;;;;1.10;0.90;;;19.20;66.00;;;;;;4966563;28;95865;-55
2021/10/12 01:36:50;;;;;;;1.30;0.90;;;19.40;65.60;;;;;;4967071;28;95686;-57
2021/10/12 01:39:25;;;;;;;5.13;1.15;;;19.50;64.50;;;;;;4968146;28;95589;-57
2021/10/12 01:41:55;;;;;;;1.15;0.80;;;19.50;63.40;;;;;;4965287;28;95804;-55
2021/10/12 01:44:25;;;;;;;0.80;0.80;;;19.60;59.50;;;;;;4965094;28;95793;-52
2021/10/12 01:46:57;;;;;;;2.45;0.98;;;19.60;62.00;;;;;;4960290;28;95634;-55
2021/10/12 01:49:28;;;;;;;1.35;1.00;;;19.70;60.50;;;;;;4961282;28;95528;-57
2021/10/12 01:51:59;;;;;;;3.40;1.00;;;19.70;60.80;;;;;;4963243;28;95753;-58
2021/10/12 01:54:29;;;;;;;1.20;1.10;;;19.80;60.40;;;;;;4959971;28;95890;-54
2021/10/12 01:57:00;;;;;;;2.75;1.25;;;19.90;59.70;;;;;;4960890;28;95915;-58
2021/10/12 01:59:35;;;;;;;2.08;1.60;;;19.90;58.80;;;;;;4957049;28;95991;-53
2021/10/12 02:02:07;;;;;;;1.92;1.15;;;19.90;58.10;;;;;;4953852;28;98173;-54
2021/10/12 02:04:40;;;;;;;1.02;0.98;;;20.00;55.50;;;;;;4963402;28;95917;-57
2021/10/12 02:07:12;;;;;;;2.97;1.10;;;20.10;58.70;;;;;;4967003;28;95903;-59
2021/10/12 02:09:43;;;;;;;2.88;1.10;;;20.10;55.10;;;;;;4967160;28;96744;-52
2021/10/12 02:12:14;;;;;;;1.40;1.30;;;20.10;58.40;;;;;;4963482;28;95931;-56
2021/10/12 02:14:46;;;;;;;3.47;1.08;;;20.20;57.40;;;;;;4953763;28;98297;-54
2021/10/12 02:17:16;;;;;;;1.88;1.10;;;20.40;56.90;;;;;;4966110;28;95538;-56
2021/10/12 02:19:46;;;;;;;1.80;1.33;;;20.50;56.80;;;;;;4967020;28;95359;-59
2021/10/12 02:22:18;;;;;;;1.55;1.20;;;20.50;56.90;;;;;;4968994;28;95976;-57
2021/10/12 02:24:49;;;;;;;1.42;1.08;;;20.40;55.80;;;;;;4966533;28;95889;-54
2021/10/12 02:27:19;;;;;;;1.53;1.30;;;20.40;55.20;;;;;;4966284;28;96101;-50
2021/10/12 02:38:27;;;;;;;2.53;1.27;;;20.30;55.40;;;;;;4957179;28;96887;-54
2021/10/12 02:40:58;;;;;;;;;;;20.40;54.50;;;;;;4959979;28;95435;-54
2021/10/12 02:43:29;;;;;;;3.20;1.40;;;20.40;53.60;;;;;;4964485;28;96014;-59
2021/10/12 02:46:01;;;;;;;1.60;1.25;;;20.40;54.50;;;;;;4951965;28;96154;-52
2021/10/12 02:48:32;;;;;;;2.45;1.30;;;20.40;55.30;;;;;;4956176;28;96385;-53
2021/10/12 02:51:03;;;;;;;1.90;1.15;;;20.50;51.20;;;;;;4957983;28;95899;-59
2021/10/12 02:53:35;;;;;;;1.70;1.42;;;20.50;55.10;;;;;;4963573;28;95645;-55
2021/10/12 02:56:06;;;;;;;1.77;1.40;;;20.60;54.60;;;;;;4958951;28;95783;-53
2021/10/12 02:58:37;;;;;;;2.25;1.13;;;20.60;55.40;;;;;;4956602;28;95832;-52
2021/10/12 03:01:08;;;;;;;1.90;1.30;;;20.70;54.90;;;;;;4952993;28;97917;-53
2021/10/12 03:03:40;;;;;;;2.78;1.30;;;20.80;55.40;;;;;;4964531;28;95967;-52
2021/10/12 03:06:13;;;;;;;2.50;1.40;;;20.90;54.90;;;;;;4968922;28;95882;-55
2021/10/12 03:08:44;;;;;;;2.45;1.30;;;20.90;53.20;;;;;;4991878;28;95907;-59
2021/10/12 03:11:16;;;;;;;2.42;1.60;;;20.90;53.40;;;;;;4959080;28;95707;-57
2021/10/12 03:13:47;;;;;;;2.55;1.38;;;20.90;52.50;;;;;;4951384;28;95818;-57
2021/10/12 03:16:18;;;;;;;7.75;4.40;;;20.80;50.90;;;;;;4966374;28;95927;-53
2021/10/12 03:18:50;;;;;;;2.55;2.15;;;20.70;52.30;;;;;;4964574;28;95850;-52
2021/10/12 03:21:21;;;;;;;2.83;1.60;;;20.70;52.00;;;;;;4966061;28;95861;-55
2021/10/12 03:23:52;;;;;;;;;;;20.70;56.20;;;;;;4969050;28;95643;-53
2021/10/12 03:26:24;;;;;;;2.28;2.05;;;20.80;54.70;;;;;;4969299;28;95835;-54
2021/10/12 03:28:54;;;;;;;3.50;2.03;;;20.80;55.40;;;;;;4965693;28;96660;-59
2021/10/12 03:31:25;;;;;;;3.20;1.90;;;20.80;56.20;;;;;;4956684;28;96158;-50
2021/10/12 03:33:58;;;;;;;3.80;2.78;;;20.80;54.50;;;;;;4968303;28;95751;-58
2021/10/12 03:36:29;;;;;;;3.25;2.75;;;20.80;56.00;;;;;;4960207;28;95311;-57
2021/10/12 03:39:01;;;;;;;5.28;3.75;;;20.80;56.70;;;;;;4946390;28;96376;-49
2021/10/12 03:41:31;;;;;;;6.82;3.70;;;20.80;57.70;;;;;;4963372;28;97916;-57
2021/10/12 03:44:02;;;;;;;3.78;3.47;;;20.80;57.60;;;;;;4961220;28;95599;-59
2021/10/12 03:46:33;;;;;;;3.15;2.78;;;20.70;56.90;;;;;;4960067;28;96497;-53
2021/10/12 03:49:04;;;;;;;3.38;2.08;;;20.60;54.00;;;;;;4949252;28;96650;-53
2021/10/12 03:51:35;;;;;;;4.22;2.60;;;20.60;55.00;;;;;;4960003;28;95770;-59
2021/10/12 03:54:05;;;;;;;6.00;4.10;;;20.50;56.20;;;;;;4958820;28;95622;-53
2021/10/12 03:56:35;;;;;;;6.18;3.25;;;20.50;57.20;;;;;;4955057;28;95855;-56
2021/10/12 03:59:08;;;;;;;4.60;4.00;;;20.50;56.10;;;;;;4960047;28;96607;-59
2021/10/12 04:01:40;;;;;;;5.03;4.45;;;20.50;55.90;;;;;;4955721;28;98545;-58
2021/10/12 04:04:13;;;;;;;6.03;3.55;;;20.50;57.40;;;;;;4964365;28;95765;-58
2021/10/12 04:06:45;;;;;;;6.28;3.75;;;20.50;54.90;;;;;;4970115;28;95367;-55
2021/10/12 04:09:15;;;;;;;7.10;6.00;;;20.40;55.40;;;;;;4979020;28;97518;-56
2021/10/12 04:11:46;;;;;;;5.00;4.50;;;20.40;57.40;;;;;;4979987;28;95400;-57
2021/10/12 04:14:17;;;;;;;3.47;2.63;;;20.40;57.90;;;;;;4955922;28;95725;-53
2021/10/12 04:16:49;;;;;;;4.55;4.15;;;20.40;53.90;;;;;;4964686;28;95970;-53
2021/10/12 04:19:20;;;;;;;2.60;2.08;;;20.30;57.50;;;;;;4968867;28;96245;-54
2021/10/12 04:21:50;;;;;;;6.37;4.77;;;20.30;54.40;;;;;;4967107;28;95570;-57
2021/10/12 04:24:22;;;;;;;5.20;4.70;;;20.30;57.60;;;;;;4970594;28;95706;-54
2021/10/12 04:26:52;;;;;;;4.10;3.70;;;20.30;58.80;;;;;;4969979;28;95665;-50
2021/10/12 04:29:22;;;;;;;4.88;3.90;;;20.30;58.40;;;;;;4970551;28;96387;-51
2021/10/12 04:31:52;;;;;;;4.03;3.63;;;20.30;58.90;;;;;;4961148;28;95943;-52
2021/10/12 04:34:27;;;;;;;7.50;3.08;;;20.30;58.70;;;;;;4963636;28;95990;-53
2021/10/12 04:36:59;;;;;;;4.35;2.85;;;20.30;57.80;;;;;;4963212;28;95585;-53
2021/10/12 04:39:30;;;;;;;3.35;2.42;;;20.30;57.80;;;;;;4961603;28;95927;-56
2021/10/12 04:42:01;;;;;;;3.60;2.05;;;20.30;57.70;;;;;;4957053;28;95256;-57
2021/10/12 04:44:33;;;;;;;2.92;2.47;;;20.30;58.00;;;;;;4961994;28;95856;-54
2021/10/12 04:47:05;;;;;;;3.90;2.30;;;20.30;58.00;;;;;;4957162;28;96014;-55
2021/10/12 04:49:38;;;;;;;6.85;2.20;;;20.30;58.00;;;;;;4960512;28;97740;-54
2021/10/12 04:52:11;;;;;;;2.35;2.13;;;20.30;58.00;;;;;;4961736;28;95827;-53
2021/10/12 04:54:41;;;;;;;3.72;2.05;;;20.30;58.10;;;;;;4960375;28;96326;-54
2021/10/12 04:57:12;;;;;;;3.63;2.13;;;20.30;56.70;;;;;;4996008;28;95684;-51
2021/10/12 04:59:43;;;;;;;3.90;2.40;;;20.30;57.80;;;;;;4961488;28;95920;-54
2021/10/12 05:02:14;;;;;;;6.53;1.67;;;20.30;58.50;;;;;;4971014;28;97361;-51
2021/10/12 05:04:49;;;;;;;6.15;1.75;;;20.30;57.70;;;;;;4968492;28;95396;-53
2021/10/12 05:07:21;;;;;;;2.33;1.85;;;20.40;54.30;;;;;;4976912;28;95594;-52
2021/10/12 05:09:52;;;;;;;3.10;1.63;;;20.40;57.50;;;;;;4972084;28;97151;-51
2021/10/12 05:12:24;;;;;;;3.60;1.98;;;20.50;56.50;;;;;;4965424;28;95917;-52
2021/10/12 05:14:55;;;;;;;3.13;1.65;;;20.50;58.10;;;;;;4956529;28;95784;-53
2021/10/12 05:17:32;;;;;;;1.70;1.50;;;20.50;56.70;;;;;;4957863;28;95407;-50
2021/10/12 05:20:05;;;;;;;2.45;1.60;;;20.50;56.30;;;;;;4968253;28;95938;-54
2021/10/12 05:22:36;;;;;;;5.40;2.08;;;20.50;57.20;;;;;;4968838;28;96095;-54
2021/10/12 05:25:08;;;;;;;3.38;1.40;;;20.50;58.20;;;;;;4968498;28;96963;-52
2021/10/12 05:27:40;;;;;;;2.85;1.60;;;20.60;57.00;;;;;;4963828;28;95848;-58
2021/10/12 05:30:12;;;;;;;2.03;1.63;;;20.60;58.70;;;;;;4965251;28;96027;-57
2021/10/12 05:32:45;;;;;;;4.57;1.80;;;20.60;58.50;;;;;;4967827;28;96079;-51
2021/10/12 05:35:16;;;;;;;3.15;2.00;;;20.70;57.70;;;;;;4967439;28;97671;-52
2021/10/12 05:37:47;;;;;;;4.45;1.63;;;20.70;57.30;;;;;;4966290;28;95358;-53
2021/10/12 05:40:18;;;;;;;;;;;20.80;57.90;;;;;;4968969;28;96344;-55
2021/10/12 05:42:48;;;;;;;3.28;1.70;;;20.80;58.50;;;;;;4967930;28;95823;-56
2021/10/12 05:45:19;;;;;;;1.65;1.00;;;20.80;56.20;;;;;;4967356;28;95938;-57
2021/10/12 05:47:51;;;;;;;18.83;2.30;;;20.80;55.30;;;;;;4967752;28;95673;-54
2021/10/12 05:50:23;;;;;;;6.32;1.25;;;20.80;55.70;;;;;;4968011;28;97801;-53
2021/10/12 05:56:17;;;;;;;4.28;1.65;;;20.70;54.90;;;;;;4965908;28;95878;-55
2021/10/12 06:01:14;;;;;;;2.67;1.27;;;20.60;54.40;;;;;;4967024;28;96397;-51
2021/10/12 06:03:47;;;;;;;1.70;1.40;;;20.70;56.30;;;;;;4966897;28;95941;-53
2021/10/12 06:06:19;;;;;;;1.83;1.17;;;20.80;55.70;;;;;;4966279;28;95806;-54
2021/10/12 06:08:50;;;;;;;5.35;1.83;;;20.80;56.80;;;;;;4957047;28;95610;-55
2021/10/12 06:11:21;;;;;;;6.43;1.45;;;20.90;54.90;;;;;;4964011;28;95894;-52
2021/10/12 06:13:55;;;;;;;2.00;1.10;;;20.80;55.90;;;;;;4952315;28;95960;-53
2021/10/12 06:16:26;;;;;;;5.18;2.75;;;20.80;56.40;;;;;;4949037;28;96356;-52
2021/10/12 06:18:59;;;;;;;4.00;1.20;;;20.90;56.20;;;;;;4958262;28;95944;-56
2021/10/12 06:21:31;;;;;;;3.70;1.00;;;20.90;55.00;;;;;;4966562;28;95818;-57
2021/10/12 06:24:00;;;;;;;;;;;20.80;55.70;;;;;;4965779;28;95659;-52
2021/10/12 06:26:32;;;;;;;4.87;1.50;;;20.80;56.60;;;;;;4998089;28;95753;-56
2021/10/12 06:29:03;;;;;;;2.85;1.20;;;20.80;55.70;;;;;;4967027;28;95410;-55
2021/10/12 06:31:34;;;;;;;3.80;1.05;;;20.70;55.60;;;;;;4969859;28;96698;-57
2021/10/12 06:34:06;;;;;;;5.35;1.10;;;20.70;56.30;;;;;;4963073;28;95930;-58
2021/10/12 06:36:41;;;;;;;12.80;1.40;;;20.70;55.30;;;;;;4966593;28;96043;-54
2021/10/12 06:39:13;;;;;;;4.13;1.20;;;20.70;56.40;;;;;;4967482;28;95958;-56
2021/10/12 06:41:43;;;;;;;2.42;1.13;;;20.70;56.30;;;;;;4966325;28;96366;-57
2021/10/12 06:44:16;;;;;;;4.05;1.10;;;20.70;55.80;;;;;;4965574;28;95778;-54
2021/10/12 06:46:47;;;;;;;;;;;20.70;55.90;;;;;;4967249;28;96122;-58
2021/10/12 06:49:20;;;;;;;2.05;0.80;;;20.80;57.20;;;;;;4968597;28;95848;-52
2021/10/12 06:51:51;;;;;;;6.07;1.23;;;20.80;57.10;;;;;;4966342;28;96640;-54
2021/10/12 06:54:21;;;;;;;1.58;1.05;;;20.90;56.60;;;;;;4962778;28;95832;-53
2021/10/12 06:56:53;;;;;;;7.90;1.40;;;20.80;57.10;;;;;;4966921;28;95623;-52
2021/10/12 06:59:24;;;;;;;3.90;1.08;;;20.80;56.40;;;;;;4966910;28;95749;-52
2021/10/12 07:01:55;;;;;;;4.70;1.67;;;20.80;57.70;;;;;;4967123;28;95829;-54
2021/10/12 07:04:27;;;;;;;4.65;1.27;;;20.80;56.60;;;;;;4966763;28;95898;-59
2021/10/12 07:06:58;;;;;;;7.10;1.05;;;20.90;57.50;;;;;;4967802;28;96136;-54
2021/10/12 07:09:29;;;;;;;2.75;1.13;;;20.80;56.50;;;;;;4959534;28;95761;-51
2021/10/12 07:12:01;;;;;;;1.13;0.73;;;20.80;56.00;;;;;;4962856;28;95937;-55
2021/10/12 07:14:35;;;;;;;4.55;1.23;;;20.80;57.00;;;;;;4964087;28;95829;-53
2021/10/12 07:17:06;;;;;;;3.42;1.52;;;20.80;57.80;;;;;;4949353;28;99852;-52
2021/10/12 07:19:37;;;;;;;5.72;1.27;;;20.70;55.70;;;;;;4963754;28;95852;-54
2021/10/12 07:22:09;;;;;;;4.43;1.15;;;20.70;56.40;;;;;;4966782;28;95843;-54
2021/10/12 07:24:40;;;;;;;4.97;1.08;;;20.60;55.30;;;;;;4965291;28;95856;-54
2021/10/12 07:27:10;;;;;;;5.45;1.50;;;20.50;56.20;;;;;;4966397;28;95866;-52
2021/10/12 07:29:50;;;;;;;3.63;1.20;;;20.50;53.90;;;;;;4967312;28;95261;-55
2021/10/12 07:32:21;;;;;;;4.43;1.15;;;20.50;57.50;;;;;;4964735;28;97078;-53
2021/10/12 07:34:52;;;;;;;3.97;0.93;;;20.40;57.30;;;;;;4959643;28;95883;-54
2021/10/12 07:37:26;;;;;;;1.70;0.80;;;20.40;54.10;;;;;;4956326;28;95799;-51
2021/10/12 07:39:57;;;;;;;3.22;0.98;;;20.40;57.30;;;;;;4968345;28;95672;-57
2021/10/12 07:42:28;;;;;;;3.10;1.00;;;20.30;57.70;;;;;;4968568;28;97204;-53
2021/10/12 07:44:59;;;;;;;5.38;1.25;;;20.30;57.60;;;;;;4966249;28;95872;-51
2021/10/12 07:47:30;;;;;;;6.13;1.40;;;20.30;58.50;;;;;;4965787;28;95984;-53
2021/10/12 07:50:02;;;;;;;2.63;1.10;;;20.20;58.60;;;;;;4965538;28;95691;-53
2021/10/12 07:52:35;;;;;;;4.90;1.25;;;20.20;58.50;;;;;;4967004;28;96730;-54
2021/10/12 07:57:36;;;;;;;1.58;1.00;;;20.10;57.40;;;;;;4968176;28;95802;-52
2021/10/12 08:00:09;;;;;;;4.10;0.90;;;20.00;57.40;;;;;;4968404;28;95665;-54
2021/10/12 08:02:41;;;;;;;2.63;1.30;;;19.90;58.20;;;;;;4957569;28;96016;-56
2021/10/12 08:05:12;;;;;;;1.95;1.20;;;19.90;57.70;;;;;;4966182;28;95957;-56
2021/10/12 08:07:43;;;;;;;;;;;19.70;58.10;;;;;;4960649;28;97795;-57
2021/10/12 08:10:36;;;;;;;3.95;1.40;;;19.80;58.30;;;;;;4958713;28;95729;-53
2021/10/12 08:13:19;;;;;;;3.88;1.50;;;19.70;58.50;;;;;;4957506;28;96042;-54
2021/10/12 08:15:55;;;;;;;4.35;1.55;;;19.70;58.00;;;;;;4959249;28;95809;-60
2021/10/12 08:18:25;;;;;;;4.82;1.10;;;19.60;58.10;;;;;;4958960;28;96112;-53
2021/10/12 08:20:56;;;;;;;5.75;1.17;;;19.50;58.80;;;;;;4969706;28;95314;-54
2021/10/12 08:23:27;;;;;;;8.98;1.80;;;19.60;57.30;;;;;;4964377;28;96231;-60
2021/10/12 08:25:58;;;;;;;4.05;1.50;;;19.50;55.20;;;;;;4966590;28;96151;-58
2021/10/12 08:28:27;;;;;;;4.90;1.42;;;19.40;57.40;;;;;;4959733;28;95630;-54
2021/10/12 08:30:58;;;;;;;14.68;2.58;;;19.30;58.10;;;;;;4969327;28;95925;-56
2021/10/12 08:33:29;;;;;;;14.70;2.30;;;19.20;58.20;;;;;;4965731;28;96628;-57
2021/10/12 08:36:00;;;;;;;4.97;1.50;;;19.20;58.90;;;;;;4962442;28;95978;-56
2021/10/12 08:38:55;;;;;;;10.50;1.70;;;19.10;58.40;;;;;;4961949;28;95711;-55
2021/10/12 08:41:35;;;;;;;6.45;1.55;;;19.00;58.50;;;;;;4967731;28;95905;-57
2021/10/12 08:44:06;;;;;;;8.23;1.80;;;19.00;58.10;;;;;;4968738;28;96542;-56
2021/10/12 08:46:37;;;;;;;4.72;1.85;;;18.90;57.90;;;;;;4968782;28;97290;-57
2021/10/12 08:49:10;;;;;;;5.07;1.08;;;18.90;58.00;;;;;;4967332;28;96473;-52
2021/10/12 08:51:47;;;;;;;1.50;0.82;;;18.90;58.70;;;;;;4966912;28;95987;-56
2021/10/12 08:54:18;;;;;;;5.57;1.92;;;18.90;59.60;;;;;;4967941;28;95760;-57
2021/10/12 08:56:49;;;;;;;3.97;1.83;;;18.80;58.50;;;;;;4963826;28;95839;-59
2021/10/12 08:59:22;;;;;;;3.55;1.52;;;18.70;58.20;;;;;;4967915;28;95833;-53
2021/10/12 09:02:04;;;;;;;1.70;1.00;;;18.70;58.70;;;;;;4969105;28;97034;-57
2021/10/12 09:04:42;;;;;;;2.60;0.95;;;18.50;58.80;;;;;;4965611;28;95853;-57
2021/10/12 09:07:26;;;;;;;2.53;1.10;;;18.40;58.70;;;;;;4963536;28;95714;-56
2021/10/12 09:09:59;;;;;;;2.35;1.17;;;18.40;58.70;;;;;;4964574;28;95916;-56
2021/10/12 09:12:41;;;;;;;8.20;1.15;;;18.30;58.70;;;;;;4963597;28;95691;-52
2021/10/12 09:15:13;;;;;;;3.00;1.10;;;18.20;59.20;;;;;;4959951;28;95829;-54
2021/10/12 09:17:52;;;;;;;4.20;1.27;;;18.20;59.50;;;;;;4951836;28;96121;-56
2021/10/12 09:20:29;;;;;;;3.17;1.10;;;18.20;59.50;;;;;;4961030;28;96012;-55
2021/10/12 09:23:13;;;;;;;4.07;1.27;;;18.00;59.60;;;;;;4960644;28;96772;-54
2021/10/12 09:25:46;;;;;;;2.95;1.30;;;17.90;60.30;;;;;;4961672;28;96795;-54
2021/10/12 09:28:28;;;;;;;4.78;1.50;;;17.70;60.70;;;;;;4961187;28;97398;-55
2021/10/12 09:30:59;;;;;;;4.82;2.15;;;17.60;60.40;;;;;;4963064;28;95852;-56
2021/10/12 09:33:31;;;;;;;6.40;3.42;;;17.60;60.90;;;;;;4961123;28;95739;-55
2021/10/12 09:36:03;;;;;;;5.45;3.38;;;17.60;58.30;;;;;;4962783;28;97186;-57
2021/10/12 09:38:45;;;;;;;5.60;3.92;;;17.50;61.10;;;;;;4959456;28;95922;-57
2021/10/12 09:41:16;;;;;;;13.68;5.72;;;17.40;61.50;;;;;;4959268;28;95453;-55
2021/10/12 09:43:46;;;;;;;12.20;5.93;;;17.30;61.30;;;;;;4961774;28;95323;-56
2021/10/12 09:46:31;;;;;;;12.68;5.72;;;17.20;61.50;;;;;;4960615;28;96470;-58
2021/10/12 09:49:12;;;;;;;13.32;6.50;;;17.10;61.70;;;;;;4960133;28;95685;-53
2021/10/12 09:52:02;;;;;;;;;;;17.10;61.90;;;;;;4960223;28;96239;-55
2021/10/12 09:54:38;;;;;;;8.85;4.32;;;17.00;61.40;;;;;;4959528;28;96912;-54
2021/10/12 09:57:10;;;;;;;5.70;2.92;;;17.00;61.40;;;;;;4956860;28;97181;-56
2021/10/12 09:59:42;;;;;;;9.32;4.70;;;16.90;62.50;;;;;;4959335;28;95503;-58
2021/10/12 10:02:17;;;;;;;15.93;6.38;;;16.80;62.80;;;;;;4960980;28;96121;-57
2021/10/12 10:04:50;;;;;;;17.35;8.98;;;16.70;63.00;;;;;;4960861;28;95835;-55
2021/10/12 10:07:31;;;;;;;23.75;15.15;;;16.60;63.80;;;;;;4959534;28;96100;-53
2021/10/12 10:10:05;;;;;;;38.17;26.20;;;16.40;63.90;;;;;;4959899;28;96050;-56
2021/10/12 10:12:37;;;;;;;74.65;56.00;;;16.40;63.70;;;;;;4958561;28;96086;-54
2021/10/12 10:15:09;;;;;;;92.18;68.53;;;16.40;64.20;;;;;;4957871;28;95735;-56
2021/10/12 10:17:42;;;;;;;62.33;46.95;;;16.30;64.50;;;;;;4945550;28;95980;-58
2021/10/12 10:20:16;;;;;;;49.78;34.65;;;16.20;64.90;;;;;;4960460;28;96410;-57
2021/10/12 10:22:56;;;;;;;36.20;23.48;;;16.20;64.70;;;;;;4959930;28;96104;-56
2021/10/12 10:25:38;;;;;;;30.67;22.33;;;16.20;64.80;;;;;;4960215;28;95913;-54
2021/10/12 10:28:17;;;;;;;27.85;18.73;;;16.10;65.10;;;;;;4958542;28;96448;-59
2021/10/12 10:30:49;;;;;;;24.77;16.90;;;16.00;65.50;;;;;;4957808;28;95498;-57
2021/10/12 10:33:35;;;;;;;27.33;16.10;;;16.00;65.00;;;;;;4959665;28;95923;-56
2021/10/12 10:36:10;;;;;;;19.35;13.60;;;16.10;62.30;;;;;;4959439;28;95756;-55
2021/10/12 10:38:46;;;;;;;19.77;12.40;;;15.90;65.70;;;;;;4959127;28;96397;-53
2021/10/12 10:41:19;;;;;;;13.88;8.45;;;15.80;66.00;;;;;;4960080;28;95906;-57
2021/10/12 10:43:50;;;;;;;12.43;7.43;;;15.80;66.50;;;;;;4962217;28;95961;-57
2021/10/12 10:46:34;;;;;;;8.40;5.93;;;15.70;66.80;;;;;;4962146;28;96048;-53
2021/10/12 10:49:23;;;;;;;10.95;6.47;;;15.70;66.70;;;;;;4962150;28;95940;-52
2021/10/12 10:52:03;;;;;;;11.63;7.78;;;15.60;66.90;;;;;;4964385;28;96783;-52
2021/10/12 10:54:41;;;;;;;11.63;8.32;;;15.80;67.30;;;;;;4966765;28;95960;-54
2021/10/12 10:57:14;;;;;;;12.85;9.27;;;16.10;66.80;;;;;;4967742;28;95796;-53
2021/10/12 10:59:48;;;;;;;11.38;9.30;;;16.40;66.40;;;;;;4966826;28;96437;-58
2021/10/12 11:02:30;;;;;;;13.75;10.23;;;16.60;66.00;;;;;;4966828;28;95975;-61
2021/10/12 11:05:03;;;;;;;16.58;11.30;;;16.70;65.80;;;;;;4965493;28;95889;-62
2021/10/12 11:07:36;;;;;;;14.00;10.25;;;16.90;65.50;;;;;;4966518;28;95705;-61
2021/10/12 11:10:07;;;;;;;15.13;11.13;;;17.00;65.20;;;;;;4966643;28;95981;-63
2021/10/12 11:12:41;;;;;;;14.50;10.35;;;17.10;64.80;;;;;;4966392;28;96284;-62
2021/10/12 11:15:12;;;;;;;15.38;11.35;;;17.20;64.80;;;;;;4966047;28;99807;-61
2021/10/12 11:18:07;;;;;;;10.52;8.75;;;17.30;64.70;;;;;;4956287;28;95439;-63
2021/10/12 11:20:42;;;;;;;14.07;10.68;;;17.50;64.80;;;;;;4965753;28;96497;-63
2021/10/12 11:23:32;;;;;;;16.25;10.35;;;17.50;64.30;;;;;;4964636;28;95322;-57
2021/10/12 11:26:12;;;;;;;12.95;10.00;;;17.60;64.10;;;;;;4966606;28;95656;-55
2021/10/12 11:28:47;;;;;;;15.80;11.55;;;17.70;64.10;;;;;;4964922;28;95847;-61
2021/10/12 11:31:20;;;;;;;13.07;9.80;;;17.70;63.90;;;;;;4965791;28;96533;-60
2021/10/12 11:33:57;;;;;;;13.48;10.32;;;17.80;63.90;;;;;;4965822;28;95896;-62
2021/10/12 11:36:32;;;;;;;11.05;8.85;;;17.90;64.10;;;;;;4966513;28;96094;-58
2021/10/12 11:39:09;;;;;;;14.43;9.10;;;18.00;64.00;;;;;;4967397;28;95638;-63
2021/10/12 11:41:39;;;;;;;14.85;9.43;;;18.10;64.10;;;;;;4967046;28;96073;-58
2021/10/12 11:44:21;;;;;;;9.93;8.30;;;18.20;64.10;;;;;;4965227;28;96091;-59
2021/10/12 11:46:59;;;;;;;10.50;9.00;;;18.30;64.00;;;;;;4966404;28;95852;-58
2021/10/12 11:49:39;;;;;;;10.02;8.13;;;18.40;63.90;;;;;;4967339;28;96119;-62
2021/10/12 11:52:13;;;;;;;9.48;7.72;;;18.50;63.70;;;;;;4966093;28;95906;-61
2021/10/12 11:54:44;;;;;;;8.98;7.57;;;18.70;63.70;;;;;;4966984;28;95525;-60
2021/10/12 11:57:20;;;;;;;8.10;6.38;;;18.80;63.40;;;;;;4966343;28;96424;-62
2021/10/12 11:59:53;;;;;;;8.82;7.18;;;19.00;63.30;;;;;;4966532;28;98256;-59
2021/10/12 12:02:24;;;;;;;8.95;6.85;;;19.10;63.10;;;;;;4965199;28;95964;-60
2021/10/12 12:05:01;;;;;;;9.15;7.00;;;19.20;62.80;;;;;;4966920;28;95829;-62
2021/10/12 12:07:38;;;;;;;6.38;5.68;;;19.30;62.60;;;;;;4963211;28;97586;-60
2021/10/12 12:10:14;;;;;;;9.25;6.63;;;19.50;62.50;;;;;;4965135;28;96011;-59
2021/10/12 12:12:45;;;;;;;8.65;6.68;;;19.60;62.20;;;;;;4971021;28;96025;-60
2021/10/12 12:15:19;;;;;;;8.20;6.35;;;19.70;61.80;;;;;;4961850;28;95849;-61
2021/10/12 12:17:49;;;;;;;8.07;6.18;;;19.80;61.70;;;;;;4953815;28;95996;-61
2021/10/12 12:20:19;;;;;;;7.20;6.50;;;19.80;61.70;;;;;;4997853;28;95797;-64
2021/10/12 12:22:51;;;;;;;7.22;5.65;;;19.80;61.70;;;;;;4967421;28;97002;-61
2021/10/12 12:25:22;;;;;;;;;;;19.90;61.70;;;;;;4968130;28;96004;-62
2021/10/12 12:27:57;;;;;;;9.82;6.80;;;19.90;61.70;;;;;;4971482;28;95858;-62
2021/10/12 12:30:46;;;;;;;8.02;5.97;;;19.90;61.70;;;;;;4969088;28;96025;-59
2021/10/12 12:33:18;;;;;;;8.60;6.50;;;19.90;61.60;;;;;;4974377;28;98238;-59
2021/10/12 12:35:56;;;;;;;15.55;8.43;;;20.00;61.60;;;;;;4971163;28;96788;-57
2021/10/12 12:38:29;;;;;;;17.67;9.30;;;20.00;59.60;;;;;;4967418;28;95267;-57
2021/10/12 12:40:59;;;;;;;12.50;8.93;;;19.80;59.50;;;;;;4970877;28;95942;-60
2021/10/12 12:43:32;;;;;;;16.55;10.38;;;19.50;60.20;;;;;;4970713;28;96492;-56
2021/10/12 12:46:11;;;;;;;17.75;10.52;;;19.40;60.50;;;;;;4963065;28;95835;-53
2021/10/12 12:49:00;;;;;;;13.73;9.57;;;19.30;60.80;;;;;;4964788;28;95650;-53
2021/10/12 12:51:45;;;;;;;18.10;10.52;;;19.00;61.80;;;;;;4967728;28;96007;-55
2021/10/12 12:54:46;;;;;;;14.32;10.23;;;18.80;62.40;;;;;;4957684;28;95737;-52
2021/10/12 12:57:20;;;;;;;16.40;8.85;;;18.70;62.80;;;;;;4961899;28;96902;-54
2021/10/12 13:00:14;;;;;;;12.85;8.75;;;18.50;63.10;;;;;;4965194;28;95396;-52
2021/10/12 13:02:56;;;;;;;13.30;9.43;;;18.50;61.00;;;;;;4958146;28;98049;-52
2021/10/12 13:05:28;;;;;;;15.02;10.02;;;18.30;63.70;;;;;;4959467;28;97037;-51
2021/10/12 13:08:01;;;;;;;15.60;10.65;;;18.30;63.80;;;;;;4971316;28;95857;-51
2021/10/12 13:10:33;;;;;;;17.55;9.77;;;18.20;64.00;;;;;;4969658;28;95936;-52
2021/10/12 13:13:04;;;;;;;16.30;9.88;;;18.20;64.30;;;;;;4970320;28;95779;-53
2021/10/12 13:15:35;;;;;;;16.45;10.27;;;18.10;64.40;;;;;;4964091;28;95886;-53
2021/10/12 13:18:06;;;;;;;16.13;10.52;;;18.00;64.60;;;;;;4957077;28;100706;-58
2021/10/12 13:20:38;;;;;;;16.60;10.45;;;18.00;64.80;;;;;;4969827;28;95355;-53
2021/10/12 13:23:08;;;;;;;13.93;9.50;;;17.90;64.80;;;;;;4966801;28;95606;-51
2021/10/12 13:25:39;;;;;;;14.15;9.13;;;17.90;65.10;;;;;;4966358;28;96405;-51
2021/10/12 13:28:09;;;;;;;12.90;9.25;;;17.80;65.20;;;;;;4967548;28;95969;-53
2021/10/12 13:30:42;;;;;;;15.70;10.35;;;17.70;65.30;;;;;;4970501;28;95308;-51
2021/10/12 13:33:14;;;;;;;16.85;10.45;;;17.70;65.40;;;;;;4966356;28;95904;-51